createdAt,value
2022-11-05T00:00:38.347Z,7.00
2022-11-05T00:06:04.925Z,7.00
2022-11-05T00:11:17.862Z,7.00
2022-11-05T00:16:37.363Z,7.00
2022-11-05T00:22:00.271Z,7.00
2022-11-05T00:27:05.224Z,7.00
2022-11-05T00:32:10.729Z,6.90
2022-11-05T00:37:15.729Z,6.90
2022-11-05T00:42:38.315Z,6.90
2022-11-05T00:48:01.370Z,6.90
2022-11-05T00:53:06.855Z,7.00
2022-11-05T00:58:17.984Z,7.00
2022-11-05T01:03:26.561Z,7.00
2022-11-05T01:08:31.722Z,7.10
2022-11-05T01:13:37.080Z,7.10
2022-11-05T01:18:42.857Z,7.00
2022-11-05T01:23:47.997Z,7.00
2022-11-05T01:28:54.140Z,7.00
2022-11-05T01:34:00.897Z,7.00
2022-11-05T01:39:06.928Z,7.10
2022-11-05T01:44:48.226Z,7.10
2022-11-05T01:49:54.771Z,7.20
2022-11-05T01:55:00.590Z,7.10
2022-11-05T02:00:06.984Z,7.10
2022-11-05T02:05:14.041Z,7.10
2022-11-05T02:10:19.917Z,7.10
2022-11-05T02:15:39.956Z,7.10
2022-11-05T02:21:00.017Z,7.00
2022-11-05T02:26:19.949Z,7.10
2022-11-05T02:31:29.891Z,7.10
2022-11-05T02:36:53.204Z,7.20
2022-11-05T02:42:33.548Z,7.10
2022-11-05T02:47:59.856Z,7.10
2022-11-05T02:53:30.645Z,7.00
2022-11-05T02:58:36.406Z,7.00
2022-11-05T03:03:51.147Z,7.10
2022-11-05T03:09:08.204Z,7.10
2022-11-05T03:14:34.490Z,7.10
2022-11-05T03:19:45.345Z,7.10
2022-11-05T03:24:53.515Z,7.10
2022-11-05T03:30:08.409Z,7.20
2022-11-05T03:35:19.566Z,7.20
2022-11-05T03:40:25.901Z,7.20
2022-11-05T03:45:34.421Z,7.30
2022-11-05T03:50:45.019Z,7.30
2022-11-05T03:56:08.608Z,7.30
2022-11-05T04:01:15.736Z,7.30
2022-11-05T04:06:38.788Z,7.30
2022-11-05T04:12:01.939Z,7.40
2022-11-05T04:17:07.155Z,7.30
2022-11-05T04:22:29.510Z,7.30
2022-11-05T04:27:35.923Z,7.40
2022-11-05T04:32:40.937Z,7.30
2022-11-05T04:37:45.840Z,7.30
2022-11-05T04:42:51.527Z,7.20
2022-11-05T04:47:56.898Z,7.40
2022-11-05T04:53:02.730Z,7.30
2022-11-05T04:58:09.849Z,7.40
2022-11-05T05:03:15.408Z,7.20
2022-11-05T05:08:21.377Z,7.20
2022-11-05T05:13:26.224Z,7.40
2022-11-05T05:18:31.628Z,7.50
2022-11-05T05:30:42.828Z,7.70
2022-11-05T05:35:48.012Z,7.50
2022-11-05T05:40:53.775Z,7.60
2022-11-05T05:46:01.000Z,7.70
2022-11-05T05:51:08.552Z,7.60
2022-11-05T05:56:15.797Z,7.50
2022-11-05T06:01:21.693Z,7.50
2022-11-05T06:06:26.620Z,7.50
2022-11-05T06:11:32.095Z,7.50
2022-11-05T06:16:39.402Z,7.60
2022-11-05T06:21:45.622Z,7.60
2022-11-05T06:26:51.339Z,7.50
2022-11-05T06:31:57.152Z,7.50
2022-11-05T06:37:02.626Z,7.50
2022-11-05T06:42:22.847Z,7.50
2022-11-05T06:47:14.233Z,7.40
2022-11-05T06:52:20.394Z,7.50
2022-11-05T06:57:25.840Z,7.50
2022-11-05T07:02:31.678Z,7.50
2022-11-05T07:07:37.166Z,7.50
2022-11-05T07:12:43.587Z,7.60
2022-11-05T07:17:49.311Z,7.70
2022-11-05T07:23:12.777Z,7.70
2022-11-05T07:28:18.243Z,7.70
2022-11-05T07:33:24.501Z,7.80
2022-11-05T07:38:29.913Z,7.80
2022-11-05T07:43:35.857Z,7.80
2022-11-05T07:48:40.938Z,7.80
2022-11-05T07:53:48.137Z,7.80
2022-11-05T07:58:53.319Z,7.90
2022-11-05T08:03:58.802Z,7.80
2022-11-05T08:09:03.747Z,7.80
2022-11-05T08:14:08.740Z,7.90
2022-11-05T08:19:14.315Z,7.80
2022-11-05T08:24:19.865Z,7.80
2022-11-05T08:29:24.815Z,7.90
2022-11-05T08:34:30.050Z,8.00
2022-11-05T08:39:35.912Z,8.00
2022-11-05T08:44:40.821Z,8.10
2022-11-05T08:49:45.884Z,8.30
2022-11-05T08:54:51.097Z,8.20
2022-11-05T08:59:55.932Z,8.20
2022-11-05T09:05:01.170Z,8.30
2022-11-05T09:10:10.029Z,8.20
2022-11-05T09:15:16.368Z,8.30
2022-11-05T09:20:21.524Z,8.30
2022-11-05T09:25:26.770Z,8.40
2022-11-05T09:30:31.971Z,8.60
2022-11-05T09:35:40.337Z,8.70
2022-11-05T09:40:57.324Z,8.70
2022-11-05T09:46:06.001Z,8.60
2022-11-05T09:51:17.961Z,8.70
2022-11-05T09:56:26.846Z,8.90
2022-11-05T10:01:37.160Z,8.90
2022-11-05T10:06:45.963Z,9.10
2022-11-05T10:11:54.846Z,9.10
2022-11-05T10:17:02.821Z,9.00
2022-11-05T10:22:19.391Z,9.00
2022-11-05T10:27:37.515Z,9.50
2022-11-05T10:32:44.761Z,9.60
2022-11-05T10:37:52.350Z,9.90
2022-11-05T10:43:15.903Z,10.00
2022-11-05T10:48:43.623Z,9.70
2022-11-05T10:54:01.348Z,9.60
2022-11-05T10:59:07.912Z,9.40
2022-11-05T11:04:19.583Z,9.60
2022-11-05T11:09:28.071Z,9.50
2022-11-05T11:14:35.126Z,9.40
2022-11-05T11:19:40.613Z,9.40
2022-11-05T11:24:49.374Z,9.70
2022-11-05T11:30:02.566Z,9.50
2022-11-05T11:35:11.448Z,9.70
2022-11-05T11:40:22.738Z,10.00
2022-11-05T11:45:36.556Z,10.20
2022-11-05T11:50:44.635Z,9.90
2022-11-05T11:55:58.766Z,9.70
2022-11-05T12:01:10.540Z,9.60
2022-11-05T12:06:25.759Z,9.60
2022-11-05T12:11:57.933Z,9.50
2022-11-05T12:17:21.624Z,9.80
2022-11-05T12:22:53.846Z,9.80
2022-11-05T12:28:23.444Z,9.70
2022-11-05T12:33:40.458Z,9.70
2022-11-05T12:39:07.244Z,9.90
2022-11-05T12:44:20.075Z,9.80
2022-11-05T12:49:46.396Z,9.80
2022-11-05T12:54:58.497Z,10.40
2022-11-05T13:00:07.535Z,10.40
2022-11-05T13:05:24.817Z,10.10
2022-11-05T13:10:35.615Z,9.50
2022-11-05T13:15:44.045Z,9.70
2022-11-05T13:20:51.921Z,9.50
2022-11-05T13:26:06.427Z,9.40
2022-11-05T13:31:14.901Z,9.30
2022-11-05T13:36:52.676Z,9.50
2022-11-05T13:42:07.237Z,9.40
2022-11-05T13:47:25.113Z,9.30
2022-11-05T13:52:49.161Z,9.30
2022-11-05T13:58:15.661Z,9.30
2022-11-05T14:03:22.347Z,9.30
2022-11-05T14:08:29.381Z,9.40
2022-11-05T14:13:38.118Z,9.40
2022-11-05T14:18:47.617Z,9.30
2022-11-05T14:23:57.506Z,9.20
2022-11-05T14:29:08.430Z,9.10
2022-11-05T14:34:16.907Z,9.10
2022-11-05T14:39:25.483Z,9.00
2022-11-05T14:44:33.748Z,8.90
2022-11-05T14:49:42.013Z,8.90
2022-11-05T14:54:49.674Z,9.00
2022-11-05T15:00:00.270Z,8.90
2022-11-05T15:05:34.003Z,8.90
2022-11-05T15:10:40.899Z,8.80
2022-11-05T15:15:48.375Z,8.60
2022-11-05T15:20:56.924Z,8.50
2022-11-05T15:26:11.111Z,8.40
2022-11-05T15:31:20.416Z,8.40
2022-11-05T15:36:32.205Z,8.30
2022-11-05T15:41:37.460Z,8.30
2022-11-05T15:46:44.164Z,8.30
2022-11-05T15:51:49.777Z,8.10
2022-11-05T15:56:58.045Z,8.10
2022-11-05T16:02:22.695Z,7.90
2022-11-05T16:07:29.467Z,7.60
2022-11-05T16:12:38.283Z,7.50
2022-11-05T16:17:59.548Z,7.50
2022-11-05T16:23:11.040Z,7.30
2022-11-05T16:28:25.228Z,7.10
2022-11-05T16:33:36.595Z,7.00
2022-11-05T16:38:41.974Z,6.80
2022-11-05T16:44:00.846Z,6.80
2022-11-05T16:49:06.703Z,6.50
2022-11-05T16:54:12.298Z,6.60
2022-11-05T16:59:17.602Z,6.20
2022-11-05T17:04:23.432Z,6.30
2022-11-05T17:09:28.598Z,6.00
2022-11-05T17:14:33.695Z,5.70
2022-11-05T17:19:41.575Z,5.70
2022-11-05T17:24:46.678Z,5.60
2022-11-05T17:29:51.574Z,5.40
2022-11-05T17:34:56.557Z,5.40
2022-11-05T17:40:02.811Z,5.40
2022-11-05T17:45:09.214Z,5.30
2022-11-05T17:50:18.155Z,5.00
2022-11-05T17:55:24.121Z,4.80
2022-11-05T18:00:29.501Z,4.60
2022-11-05T18:05:35.709Z,4.80
2022-11-05T18:10:41.724Z,5.00
2022-11-05T18:15:47.310Z,4.90
2022-11-05T18:20:52.867Z,4.00
2022-11-05T18:25:59.167Z,3.00
2022-11-05T18:31:07.277Z,3.70
2022-11-05T18:36:11.937Z,3.90
2022-11-05T18:41:17.361Z,3.50
2022-11-05T18:46:51.151Z,3.70
2022-11-05T18:51:28.983Z,3.90
2022-11-05T18:56:34.449Z,4.00
2022-11-05T19:01:40.117Z,4.10
2022-11-05T19:06:47.406Z,3.70
2022-11-05T19:11:52.988Z,3.90
2022-11-05T19:16:59.450Z,3.10
2022-11-05T19:22:05.441Z,3.40
2022-11-05T19:27:10.834Z,3.20
2022-11-05T19:32:16.937Z,2.90
2022-11-05T19:37:25.108Z,2.40
2022-11-05T19:42:30.287Z,2.30
2022-11-05T19:47:35.451Z,2.70
2022-11-05T19:52:40.345Z,3.10
2022-11-05T19:57:46.716Z,3.00
2022-11-05T20:02:51.915Z,3.20
2022-11-05T20:07:58.350Z,3.30
2022-11-05T20:13:03.398Z,3.20
2022-11-05T20:18:09.375Z,3.20
2022-11-05T20:23:16.428Z,3.20
2022-11-05T20:28:22.341Z,3.10
2022-11-05T20:33:29.024Z,3.10
2022-11-05T20:38:34.567Z,3.00
2022-11-05T20:43:41.922Z,2.30
2022-11-05T20:48:46.993Z,2.50
2022-11-05T20:53:57.495Z,2.50
2022-11-05T20:59:03.486Z,2.50
2022-11-05T21:04:09.189Z,2.50
2022-11-05T21:09:14.651Z,2.00
2022-11-05T21:14:20.692Z,1.60
2022-11-05T21:19:26.327Z,2.10
2022-11-05T21:24:33.306Z,2.30
2022-11-05T21:29:38.606Z,2.40
2022-11-05T21:34:43.964Z,2.50
2022-11-05T21:39:49.402Z,2.30
2022-11-05T21:45:00.032Z,1.90
2022-11-05T21:50:01.511Z,2.00
2022-11-05T21:55:24.642Z,1.50
2022-11-05T22:00:30.918Z,1.80
2022-11-05T22:05:36.317Z,1.90
2022-11-05T22:10:41.434Z,2.00
2022-11-05T22:15:49.661Z,2.00
2022-11-05T22:20:55.431Z,1.80
2022-11-05T22:26:01.759Z,1.70
2022-11-05T22:31:18.299Z,1.80
2022-11-05T22:36:23.393Z,1.60
2022-11-05T22:41:28.934Z,1.90
2022-11-05T22:46:34.206Z,2.10
2022-11-05T22:51:41.084Z,1.90
2022-11-05T22:56:46.380Z,1.70
2022-11-05T23:01:51.649Z,1.90
2022-11-05T23:07:14.716Z,2.00
2022-11-05T23:12:27.149Z,2.20
2022-11-05T23:17:50.648Z,1.90
2022-11-05T23:23:13.167Z,1.70
2022-11-05T23:28:20.126Z,1.70
2022-11-05T23:33:26.419Z,1.80
2022-11-05T23:38:33.928Z,1.80
2022-11-05T23:43:56.863Z,1.90
2022-11-05T23:49:01.927Z,1.80
2022-11-05T23:54:07.015Z,1.70
2022-11-05T23:59:12.678Z,1.90
